Аэропорт: Наримановка. Костанай

ICAO: UAUU

METAR:
2021-01-24 19:00:00
UAUU 241900Z 19008MPS 4400 -SN OVC030 M12/M13 Q1028 R15/450150 NOSIG RMK QFE754/1006
METAR:
2021-01-24 17:03:00
TAF UAUU 241703Z 2418/2503 19007MPS 3100 -SN BR BKN011 BECMG 2420/2421 21006MPS TEMPO 2420/2503 1200 SN BKN004